createdAt,value
2018-12-09T00:00:37.036Z,9.80
2018-12-09T00:03:05.942Z,9.80
2018-12-09T00:05:37.303Z,9.80
2018-12-09T00:08:06.056Z,9.80
2018-12-09T00:10:35.123Z,9.80
2018-12-09T00:13:03.855Z,9.90
2018-12-09T00:15:32.200Z,9.90
2018-12-09T00:18:00.577Z,9.90
2018-12-09T00:20:29.256Z,9.90
2018-12-09T00:23:00.644Z,9.90
2018-12-09T00:25:28.976Z,9.90
2018-12-09T00:28:07.019Z,9.90
2018-12-09T00:30:35.346Z,9.90
2018-12-09T00:33:04.395Z,10.00
2018-12-09T00:35:32.683Z,10.00
2018-12-09T00:38:01.646Z,10.10
2018-12-09T00:40:30.748Z,10.10
2018-12-09T00:42:59.063Z,10.00
2018-12-09T00:45:28.232Z,10.00
2018-12-09T00:47:56.830Z,10.10
2018-12-09T00:50:25.557Z,10.10
2018-12-09T00:52:53.898Z,10.10
2018-12-09T00:55:23.739Z,10.10
2018-12-09T00:57:52.017Z,10.10
2018-12-09T01:00:20.867Z,10.10
2018-12-09T01:02:49.170Z,10.10
2018-12-09T01:05:26.888Z,10.10
2018-12-09T01:07:55.818Z,10.20
2018-12-09T01:10:24.127Z,10.20
2018-12-09T01:12:52.687Z,10.00
2018-12-09T01:15:20.973Z,9.90
2018-12-09T01:17:49.361Z,9.80
2018-12-09T01:20:18.115Z,9.70
2018-12-09T01:22:46.987Z,9.70
2018-12-09T01:25:15.881Z,9.70
2018-12-09T01:27:44.870Z,9.60
2018-12-09T01:30:13.889Z,9.50
2018-12-09T01:32:42.582Z,9.40
2018-12-09T01:35:10.939Z,9.40
2018-12-09T01:37:40.063Z,9.20
2018-12-09T01:40:08.750Z,9.00
2018-12-09T01:42:37.476Z,8.80
2018-12-09T01:45:06.649Z,8.80
2018-12-09T01:47:35.596Z,8.80
2018-12-09T01:50:04.678Z,8.80
2018-12-09T01:52:33.172Z,8.80
2018-12-09T01:55:01.509Z,8.70
2018-12-09T01:57:29.870Z,8.80
2018-12-09T01:59:58.753Z,8.80
2018-12-09T02:02:27.239Z,8.70
2018-12-09T02:04:57.537Z,8.80
2018-12-09T02:07:26.273Z,8.80
2018-12-09T02:09:58.343Z,8.70
2018-12-09T02:12:27.373Z,8.70
2018-12-09T02:14:55.676Z,8.70
2018-12-09T02:17:23.942Z,8.70
2018-12-09T02:19:53.046Z,8.80
2018-12-09T02:22:22.153Z,8.80
2018-12-09T02:24:51.199Z,8.80
2018-12-09T02:27:19.489Z,8.80
2018-12-09T02:29:48.548Z,8.80
2018-12-09T02:32:18.042Z,8.80
2018-12-09T02:34:52.516Z,9.00
2018-12-09T02:37:30.128Z,9.10
2018-12-09T02:39:58.416Z,9.10
2018-12-09T02:42:27.200Z,9.30
2018-12-09T02:45:02.342Z,9.40
2018-12-09T02:47:30.916Z,9.40
2018-12-09T02:49:59.484Z,9.50
2018-12-09T02:52:28.203Z,9.50
2018-12-09T02:54:56.586Z,9.50
2018-12-09T02:57:24.877Z,9.60
2018-12-09T02:59:53.483Z,9.60
2018-12-09T03:02:22.653Z,9.60
2018-12-09T03:07:56.432Z,9.60
2018-12-09T03:10:25.155Z,9.70
2018-12-09T03:12:53.955Z,9.70
2018-12-09T03:15:22.493Z,9.70
2018-12-09T03:17:51.401Z,9.60
2018-12-09T03:20:19.698Z,9.60
2018-12-09T03:22:48.549Z,9.60
2018-12-09T03:25:18.228Z,9.50
2018-12-09T03:27:52.845Z,9.40
2018-12-09T03:30:21.170Z,9.30
2018-12-09T03:32:50.394Z,9.30
2018-12-09T03:35:18.934Z,9.40
2018-12-09T03:37:47.814Z,9.40
2018-12-09T03:40:16.431Z,9.40
2018-12-09T03:42:45.375Z,9.30
2018-12-09T03:45:14.064Z,9.30
2018-12-09T03:47:42.623Z,9.30
2018-12-09T03:53:04.878Z,9.40
2018-12-09T03:55:33.230Z,9.50
2018-12-09T03:58:02.016Z,9.50
2018-12-09T04:00:31.870Z,9.60
2018-12-09T04:03:00.458Z,9.60
2018-12-09T04:05:29.018Z,9.70
2018-12-09T04:07:57.295Z,9.70
2018-12-09T04:10:26.625Z,9.70
2018-12-09T04:12:55.449Z,9.80
2018-12-09T04:15:27.356Z,9.80
2018-12-09T04:17:56.085Z,9.80
2018-12-09T04:20:34.360Z,9.80
2018-12-09T04:23:03.617Z,9.70
2018-12-09T04:25:31.969Z,9.30
2018-12-09T04:28:00.225Z,9.00
2018-12-09T04:30:30.409Z,8.80
2018-12-09T04:32:58.741Z,8.60
2018-12-09T04:35:27.301Z,8.60
2018-12-09T04:37:55.647Z,8.60
2018-12-09T04:40:24.389Z,8.60
2018-12-09T04:42:52.737Z,8.60
2018-12-09T04:45:21.363Z,8.50
2018-12-09T04:47:49.960Z,8.50
2018-12-09T04:50:18.858Z,8.50
2018-12-09T04:52:47.861Z,8.60
2018-12-09T05:01:02.497Z,8.80
2018-12-09T05:03:32.213Z,8.80
2018-12-09T05:06:00.554Z,8.80
2018-12-09T05:08:29.428Z,8.80
2018-12-09T05:10:57.786Z,8.80
2018-12-09T05:13:35.736Z,8.80
2018-12-09T05:16:04.405Z,8.70
2018-12-09T05:18:33.303Z,8.80
2018-12-09T05:21:08.246Z,8.80
2018-12-09T05:23:36.800Z,8.80
2018-12-09T05:26:08.230Z,8.80
2018-12-09T05:28:37.203Z,8.70
2018-12-09T05:31:05.507Z,8.70
2018-12-09T05:33:35.045Z,8.60
2018-12-09T05:36:04.085Z,8.50
2018-12-09T05:38:32.756Z,8.60
2018-12-09T05:41:01.432Z,8.70
2018-12-09T05:43:36.745Z,8.70
2018-12-09T05:46:06.087Z,8.50
2018-12-09T05:48:44.317Z,8.50
2018-12-09T05:51:12.854Z,8.50
2018-12-09T05:53:41.450Z,8.50
2018-12-09T05:56:10.021Z,8.60
2018-12-09T05:58:38.335Z,8.60
2018-12-09T06:01:16.746Z,8.70
2018-12-09T06:03:45.026Z,8.70
2018-12-09T06:06:13.297Z,8.80
2018-12-09T06:08:41.605Z,8.90
2018-12-09T06:11:09.913Z,9.00
2018-12-09T06:13:48.300Z,9.10
2018-12-09T06:16:16.848Z,9.00
2018-12-09T06:18:49.140Z,8.80
2018-12-09T06:27:12.507Z,8.70
2018-12-09T06:29:40.859Z,8.70
2018-12-09T06:32:09.456Z,8.80
2018-12-09T06:34:41.024Z,8.90
2018-12-09T06:37:09.767Z,9.00
2018-12-09T06:39:38.131Z,9.10
2018-12-09T06:42:06.466Z,9.10
2018-12-09T06:44:35.060Z,9.10
2018-12-09T06:49:57.242Z,8.80
2018-12-09T06:52:26.127Z,8.70
2018-12-09T06:54:54.960Z,8.60
2018-12-09T06:57:23.915Z,8.50
2018-12-09T06:59:52.475Z,8.50
2018-12-09T07:02:21.106Z,8.50
2018-12-09T07:04:49.779Z,8.40
2018-12-09T07:07:18.892Z,8.40
2018-12-09T07:09:47.785Z,8.30
2018-12-09T07:12:16.309Z,8.30
2018-12-09T07:14:44.642Z,8.40
2018-12-09T07:17:13.186Z,8.50
2018-12-09T07:19:42.180Z,8.50
2018-12-09T07:22:10.506Z,8.60
2018-12-09T07:24:39.510Z,8.70
2018-12-09T07:27:08.235Z,8.70
2018-12-09T07:29:36.672Z,8.80
2018-12-09T07:34:49.007Z,8.90
2018-12-09T07:37:17.740Z,9.00
2018-12-09T07:39:46.110Z,9.00
2018-12-09T07:42:15.665Z,9.10
2018-12-09T07:44:44.283Z,9.20
2018-12-09T07:47:13.172Z,9.10
2018-12-09T07:49:41.494Z,9.00
2018-12-09T07:52:10.069Z,8.70
2018-12-09T07:54:38.411Z,8.30
2018-12-09T07:57:06.740Z,8.10
2018-12-09T07:59:35.739Z,7.90
2018-12-09T08:02:04.067Z,7.70
2018-12-09T08:04:32.393Z,7.60
2018-12-09T08:07:00.683Z,7.60
2018-12-09T08:09:32.647Z,7.50
2018-12-09T08:12:00.963Z,7.60
2018-12-09T08:14:29.339Z,7.60
2018-12-09T08:16:58.130Z,7.70
2018-12-09T08:19:26.726Z,7.80
2018-12-09T08:21:55.268Z,7.90
2018-12-09T08:24:24.150Z,7.90
2018-12-09T08:26:53.295Z,7.80
2018-12-09T08:29:23.489Z,7.70
2018-12-09T08:31:58.479Z,7.70
2018-12-09T08:34:30.490Z,7.60
2018-12-09T08:36:58.926Z,7.60
2018-12-09T08:39:28.367Z,7.50
2018-12-09T08:41:57.328Z,7.50
2018-12-09T08:44:25.965Z,7.50
2018-12-09T08:46:54.284Z,7.40
2018-12-09T08:49:22.672Z,7.40
2018-12-09T08:52:04.740Z,7.40
2018-12-09T08:54:33.345Z,7.50
2018-12-09T08:57:01.685Z,7.50
2018-12-09T08:59:29.973Z,7.50
2018-12-09T09:01:58.306Z,7.50
2018-12-09T09:04:27.017Z,7.60
2018-12-09T09:06:55.819Z,7.60
2018-12-09T09:09:24.439Z,7.70
2018-12-09T09:11:53.420Z,7.70
2018-12-09T09:20:08.390Z,7.90
2018-12-09T09:22:37.208Z,7.90
2018-12-09T09:25:06.023Z,8.00
2018-12-09T09:27:34.349Z,8.00
2018-12-09T09:30:03.325Z,8.10
2018-12-09T09:32:31.725Z,8.10
2018-12-09T09:35:00.087Z,8.00
2018-12-09T09:37:28.392Z,7.70
2018-12-09T09:39:57.234Z,7.60
2018-12-09T09:42:25.671Z,7.60
2018-12-09T09:44:53.991Z,7.60
2018-12-09T09:47:25.605Z,7.60
2018-12-09T10:03:38.028Z,7.40
2018-12-09T10:06:06.595Z,7.20
2018-12-09T10:08:34.999Z,7.20
2018-12-09T10:11:03.383Z,7.30
2018-12-09T10:13:32.627Z,7.20
2018-12-09T10:18:35.275Z,7.30
2018-12-09T10:21:04.226Z,7.40
2018-12-09T10:23:33.378Z,7.50
2018-12-09T10:26:01.702Z,7.60
2018-12-09T10:28:31.032Z,7.70
2018-12-09T10:30:59.373Z,7.80
2018-12-09T10:33:28.318Z,8.00
2018-12-09T10:35:56.787Z,8.00
2018-12-09T10:38:25.357Z,8.10
2018-12-09T10:40:54.094Z,8.10
2018-12-09T10:43:22.415Z,8.20
2018-12-09T10:45:51.327Z,8.40
2018-12-09T10:48:19.626Z,8.50
2018-12-09T10:56:35.646Z,8.70
2018-12-09T10:59:04.430Z,8.60
2018-12-09T11:01:38.865Z,8.60
2018-12-09T11:04:07.571Z,8.50
2018-12-09T11:06:35.891Z,8.60
2018-12-09T11:09:06.189Z,8.60
2018-12-09T11:11:39.060Z,8.70
2018-12-09T11:14:07.449Z,8.80
2018-12-09T11:16:35.907Z,8.80
2018-12-09T11:19:05.225Z,8.90
2018-12-09T11:21:33.549Z,8.90
2018-12-09T11:24:01.949Z,9.00
2018-12-09T11:26:31.121Z,9.00
2018-12-09T11:29:01.160Z,9.00
2018-12-09T11:31:32.975Z,9.00
2018-12-09T11:34:01.573Z,9.20
2018-12-09T11:36:31.181Z,9.40
2018-12-09T11:39:00.431Z,9.50
2018-12-09T11:41:28.886Z,9.60
2018-12-09T11:43:57.705Z,9.70
2018-12-09T11:46:26.078Z,9.70
2018-12-09T11:48:54.378Z,9.70
2018-12-09T11:51:22.838Z,9.60
2018-12-09T11:53:51.195Z,9.60
2018-12-09T11:59:00.269Z,9.50
2018-12-09T12:01:29.089Z,9.50
2018-12-09T12:03:57.409Z,9.60
2018-12-09T12:06:25.765Z,9.60
2018-12-09T12:08:54.074Z,9.60
2018-12-09T12:11:22.670Z,9.60
2018-12-09T12:13:51.281Z,9.60
2018-12-09T12:16:20.486Z,9.60
2018-12-09T12:18:49.092Z,9.60
2018-12-09T12:21:17.417Z,9.60
2018-12-09T12:23:46.427Z,9.60
2018-12-09T12:26:16.616Z,9.80
2018-12-09T12:28:45.533Z,9.90
2018-12-09T12:31:14.288Z,9.80
2018-12-09T12:33:42.853Z,9.80
2018-12-09T12:36:11.337Z,9.80
2018-12-09T12:38:39.653Z,9.70
2018-12-09T12:41:07.980Z,9.60
2018-12-09T12:43:37.007Z,9.50
2018-12-09T12:46:05.335Z,9.60
2018-12-09T12:48:34.250Z,9.60
2018-12-09T12:51:03.328Z,9.70
2018-12-09T12:53:32.741Z,9.70
2018-12-09T12:56:01.494Z,9.80
2018-12-09T12:58:30.417Z,9.90
2018-12-09T13:00:58.809Z,9.90
2018-12-09T13:03:27.775Z,9.90
2018-12-09T13:05:57.044Z,9.80
2018-12-09T13:08:26.428Z,9.70
2018-12-09T13:10:54.976Z,9.50
2018-12-09T13:13:26.550Z,9.30
2018-12-09T13:15:55.137Z,9.20
2018-12-09T13:18:23.916Z,9.10
2018-12-09T13:20:52.230Z,9.10
2018-12-09T13:23:23.929Z,9.00
2018-12-09T13:25:52.889Z,9.10
2018-12-09T13:28:25.435Z,9.10
2018-12-09T13:30:54.564Z,9.10
2018-12-09T13:33:24.301Z,9.20
2018-12-09T13:35:53.190Z,8.80
2018-12-09T13:38:22.028Z,8.40
2018-12-09T13:40:50.610Z,8.10
2018-12-09T13:43:19.298Z,7.90
2018-12-09T13:45:47.624Z,7.80
2018-12-09T13:48:16.357Z,7.90
2018-12-09T13:50:45.511Z,8.00
2018-12-09T13:53:14.157Z,8.00
2018-12-09T13:55:43.245Z,8.20
2018-12-09T13:58:12.132Z,8.30
2018-12-09T14:00:41.169Z,8.40
2018-12-09T14:03:09.504Z,8.40
2018-12-09T14:05:37.847Z,8.40
2018-12-09T14:08:06.746Z,8.50
2018-12-09T14:10:44.337Z,8.70
2018-12-09T14:13:13.476Z,8.70
2018-12-09T14:15:43.603Z,8.80
2018-12-09T14:18:12.454Z,8.80
2018-12-09T14:20:40.993Z,8.70
2018-12-09T14:23:09.634Z,8.70
2018-12-09T14:25:37.997Z,8.60
2018-12-09T14:28:06.351Z,8.60
2018-12-09T14:30:35.195Z,8.70
2018-12-09T14:33:07.544Z,8.70
2018-12-09T14:35:38.347Z,8.70
2018-12-09T14:38:06.716Z,8.70
2018-12-09T14:40:35.370Z,8.70
2018-12-09T14:43:03.753Z,8.70
2018-12-09T14:45:48.806Z,8.70
2018-12-09T14:48:15.553Z,8.70
2018-12-09T14:50:43.918Z,8.60
2018-12-09T14:53:12.270Z,8.60
2018-12-09T14:55:41.888Z,8.60
2018-12-09T14:58:10.472Z,8.50
2018-12-09T15:00:39.215Z,8.60
2018-12-09T15:03:07.902Z,8.60
2018-12-09T15:05:36.292Z,8.60
2018-12-09T15:08:05.213Z,8.60
2018-12-09T15:10:34.673Z,8.70
2018-12-09T15:13:03.576Z,8.40
2018-12-09T15:15:32.269Z,7.70
2018-12-09T15:18:00.673Z,7.40
2018-12-09T15:20:33.667Z,7.30
2018-12-09T15:23:05.264Z,7.20
2018-12-09T15:25:33.814Z,7.10
2018-12-09T15:28:02.430Z,7.10
2018-12-09T15:30:31.115Z,7.10
2018-12-09T15:33:03.154Z,7.00
2018-12-09T15:35:32.485Z,6.90
2018-12-09T15:38:01.616Z,6.80
2018-12-09T15:40:29.930Z,6.90
2018-12-09T15:42:59.454Z,6.90
2018-12-09T15:45:27.809Z,6.90
2018-12-09T15:47:56.159Z,7.00
2018-12-09T15:50:34.004Z,6.90
2018-12-09T15:53:02.721Z,7.00
2018-12-09T15:55:31.376Z,7.00
2018-12-09T15:57:59.729Z,6.90
2018-12-09T16:00:32.553Z,7.00
2018-12-09T16:03:00.934Z,7.10
2018-12-09T16:05:29.262Z,7.00
2018-12-09T16:07:57.906Z,7.10
2018-12-09T16:10:26.239Z,7.20
2018-12-09T16:12:54.922Z,7.30
2018-12-09T16:15:23.594Z,7.40
2018-12-09T16:17:52.528Z,7.40
2018-12-09T16:20:24.788Z,7.40
2018-12-09T16:22:53.628Z,7.50
2018-12-09T16:25:22.440Z,7.50
2018-12-09T16:27:51.255Z,7.60
2018-12-09T16:30:29.779Z,7.60
2018-12-09T16:33:01.300Z,7.70
2018-12-09T16:35:30.530Z,7.70
2018-12-09T16:37:59.192Z,7.80
2018-12-09T16:40:27.796Z,7.80
2018-12-09T16:42:56.370Z,7.80
2018-12-09T16:45:25.087Z,7.80
2018-12-09T16:47:53.360Z,7.80
2018-12-09T16:50:22.852Z,7.90
2018-12-09T16:52:51.167Z,7.90
2018-12-09T16:55:19.788Z,7.90
2018-12-09T16:57:48.774Z,7.90
2018-12-09T17:00:17.321Z,7.90
2018-12-09T17:02:45.623Z,7.90
2018-12-09T17:05:14.169Z,7.80
2018-12-09T17:07:43.688Z,7.80
2018-12-09T17:10:12.336Z,7.80
2018-12-09T17:12:41.454Z,7.70
2018-12-09T17:15:10.464Z,7.80
2018-12-09T17:17:39.003Z,7.80
2018-12-09T17:20:08.217Z,7.70
2018-12-09T17:22:37.066Z,7.70
2018-12-09T17:25:05.473Z,7.70
2018-12-09T17:27:34.019Z,7.60
2018-12-09T17:30:02.622Z,7.50
2018-12-09T17:32:31.461Z,7.50
2018-12-09T17:34:59.793Z,7.50
2018-12-09T17:37:28.392Z,7.40
2018-12-09T17:39:56.801Z,7.40
2018-12-09T17:42:27.259Z,7.30
2018-12-09T17:44:55.827Z,7.30
2018-12-09T17:47:24.179Z,7.30
2018-12-09T17:50:01.760Z,7.20
2018-12-09T17:52:31.166Z,7.30
2018-12-09T17:54:59.920Z,7.20
2018-12-09T17:57:29.964Z,7.20
2018-12-09T17:59:58.550Z,7.20
2018-12-09T18:02:27.891Z,7.30
2018-12-09T18:04:56.519Z,7.50
2018-12-09T18:07:25.130Z,7.60
2018-12-09T18:09:53.786Z,7.60
2018-12-09T18:12:22.608Z,7.60
2018-12-09T18:14:52.123Z,7.50
2018-12-09T18:17:20.439Z,7.40
2018-12-09T18:19:51.967Z,7.40
2018-12-09T18:22:20.992Z,7.40
2018-12-09T18:24:49.325Z,7.40
2018-12-09T18:27:18.329Z,7.60
2018-12-09T18:29:46.635Z,7.60
2018-12-09T18:32:16.220Z,7.30
2018-12-09T18:34:44.611Z,7.00
2018-12-09T18:37:13.982Z,6.90
2018-12-09T18:39:42.982Z,6.80
2018-12-09T18:42:12.224Z,6.80
2018-12-09T18:44:40.642Z,6.80
2018-12-09T18:47:08.993Z,6.80
2018-12-09T18:49:38.437Z,6.90
2018-12-09T18:52:06.886Z,6.90
2018-12-09T18:54:35.723Z,6.90
2018-12-09T18:57:04.658Z,6.90
2018-12-09T18:59:35.046Z,7.00
2018-12-09T19:02:05.302Z,7.00
2018-12-09T19:04:37.894Z,7.00
2018-12-09T19:07:06.758Z,7.10
2018-12-09T19:09:36.212Z,7.20
2018-12-09T19:12:05.324Z,7.20
2018-12-09T19:14:33.764Z,7.00
2018-12-09T19:17:02.481Z,6.80
2018-12-09T19:19:34.686Z,6.80
2018-12-09T19:22:03.110Z,6.60
2018-12-09T19:24:31.555Z,6.60
2018-12-09T19:27:00.301Z,6.60
2018-12-09T19:29:38.393Z,6.50
2018-12-09T19:32:09.929Z,6.60
2018-12-09T19:34:38.476Z,6.60
2018-12-09T19:37:08.510Z,6.60
2018-12-09T19:39:37.147Z,6.70
2018-12-09T19:42:05.512Z,6.70
2018-12-09T19:44:34.909Z,6.70
2018-12-09T19:47:03.479Z,6.80
2018-12-09T19:49:33.011Z,6.90
2018-12-09T19:52:05.350Z,6.90
2018-12-09T19:54:34.008Z,7.00
2018-12-09T19:57:03.123Z,7.00
2018-12-09T19:59:31.456Z,7.00
2018-12-09T20:02:00.375Z,7.10
2018-12-09T20:04:29.022Z,7.10
2018-12-09T20:06:58.363Z,7.20
2018-12-09T20:09:26.770Z,7.10
2018-12-09T20:11:58.106Z,6.80
2018-12-09T20:14:26.406Z,6.60
2018-12-09T20:16:58.582Z,6.50
2018-12-09T20:19:27.524Z,6.40
2018-12-09T20:21:56.636Z,6.40
2018-12-09T20:24:25.185Z,6.40
2018-12-09T20:26:53.828Z,6.50
2018-12-09T20:29:22.203Z,6.50
2018-12-09T20:34:24.798Z,6.70
2018-12-09T20:36:53.525Z,6.90
2018-12-09T20:39:22.321Z,7.00
2018-12-09T20:41:54.036Z,7.10
2018-12-09T20:44:22.401Z,7.00
2018-12-09T20:46:51.143Z,6.80
2018-12-09T20:49:19.592Z,6.40
2018-12-09T20:51:57.860Z,5.90
2018-12-09T20:54:26.210Z,5.70
2018-12-09T20:56:54.539Z,5.70
2018-12-09T20:59:23.183Z,5.70
2018-12-09T21:01:51.643Z,5.60
2018-12-09T21:04:20.234Z,5.60
2018-12-09T21:06:48.914Z,5.70
2018-12-09T21:09:17.672Z,5.70
2018-12-09T21:11:48.667Z,5.60
2018-12-09T21:14:24.872Z,5.70
2018-12-09T21:17:06.665Z,5.70
2018-12-09T21:19:37.375Z,5.80
2018-12-09T21:22:09.981Z,5.80
2018-12-09T21:24:39.528Z,5.90
2018-12-09T21:27:18.853Z,6.00
2018-12-09T21:30:10.494Z,6.10
2018-12-09T21:47:52.966Z,6.30
2018-12-09T21:50:46.378Z,6.30
2018-12-09T21:53:17.912Z,6.30
2018-12-09T21:55:53.585Z,6.30
2018-12-09T21:58:27.002Z,6.30
2018-12-09T22:07:05.156Z,6.30
2018-12-09T22:09:38.004Z,6.30
2018-12-09T22:12:07.774Z,6.30
2018-12-09T22:14:38.521Z,6.40
2018-12-09T22:17:08.159Z,6.40
2018-12-09T22:19:46.372Z,6.60
2018-12-09T22:22:14.755Z,6.60
2018-12-09T22:27:24.867Z,6.60
2018-12-09T22:29:53.239Z,6.40
2018-12-09T22:32:30.975Z,6.30
2018-12-09T22:35:00.154Z,6.20
2018-12-09T22:37:28.661Z,6.10
2018-12-09T22:39:57.064Z,6.10
2018-12-09T22:42:26.143Z,6.10
2018-12-09T22:44:54.554Z,6.10
2018-12-09T22:47:23.358Z,6.10
2018-12-09T22:49:51.880Z,6.10
2018-12-09T22:52:21.344Z,6.10
2018-12-09T22:54:52.961Z,6.20
2018-12-09T22:57:21.535Z,6.30
2018-12-09T22:59:50.705Z,6.40
2018-12-09T23:03:28.528Z,6.50
2018-12-09T23:05:57.031Z,6.60
2018-12-09T23:08:25.620Z,6.50
2018-12-09T23:10:54.539Z,6.20
2018-12-09T23:13:23.126Z,6.00
2018-12-09T23:15:51.456Z,5.90
2018-12-09T23:18:19.828Z,5.70
2018-12-09T23:20:48.617Z,5.70
2018-12-09T23:23:17.158Z,5.70
2018-12-09T23:25:45.950Z,5.70
2018-12-09T23:28:14.261Z,5.70
2018-12-09T23:30:45.927Z,5.80
2018-12-09T23:33:15.185Z,5.90
2018-12-09T23:35:43.533Z,5.50
2018-12-09T23:38:12.287Z,5.10
2018-12-09T23:40:40.592Z,5.00
2018-12-09T23:43:09.125Z,4.90
2018-12-09T23:45:39.264Z,4.90
2018-12-09T23:48:08.115Z,4.90
2018-12-09T23:50:37.576Z,4.90
2018-12-09T23:53:06.069Z,5.00
2018-12-09T23:55:36.068Z,5.00
2018-12-09T23:58:05.846Z,5.00
